sensor_id;sensor_type;location;lat;lon;timestamp;temperature;humidity
67752;DHT22;54551;51.068;5.826;2023-03-14T00:02:09;11.40;99.90
67752;DHT22;54551;51.068;5.826;2023-03-14T00:04:35;11.40;99.90
67752;DHT22;54551;51.068;5.826;2023-03-14T00:07:02;11.30;99.90
67752;DHT22;54551;51.068;5.826;2023-03-14T00:09:27;11.30;99.90
67752;DHT22;54551;51.068;5.826;2023-03-14T00:11:55;11.20;99.90
67752;DHT22;54551;51.068;5.826;2023-03-14T00:14:22;11.20;99.90
67752;DHT22;54551;51.068;5.826;2023-03-14T00:16:48;11.10;99.90
67752;DHT22;54551;51.068;5.826;2023-03-14T00:19:14;11.10;99.90
67752;DHT22;54551;51.068;5.826;2023-03-14T00:21:39;11.10;99.90
67752;DHT22;54551;51.068;5.826;2023-03-14T00:24:06;11.00;99.90
67752;DHT22;54551;51.068;5.826;2023-03-14T00:26:32;11.00;99.90
67752;DHT22;54551;51.068;5.826;2023-03-14T00:28:58;11.00;99.90
67752;DHT22;54551;51.068;5.826;2023-03-14T00:31:24;11.00;99.90
67752;DHT22;54551;51.068;5.826;2023-03-14T00:33:52;10.90;99.90
67752;DHT22;54551;51.068;5.826;2023-03-14T00:36:18;10.90;99.90
67752;DHT22;54551;51.068;5.826;2023-03-14T00:38:48;10.80;99.90
67752;DHT22;54551;51.068;5.826;2023-03-14T00:41:16;10.90;99.90
67752;DHT22;54551;51.068;5.826;2023-03-14T00:43:42;10.80;99.90
67752;DHT22;54551;51.068;5.826;2023-03-14T00:46:09;10.80;99.90
67752;DHT22;54551;51.068;5.826;2023-03-14T00:48:35;10.80;99.90
67752;DHT22;54551;51.068;5.826;2023-03-14T00:51:03;10.80;99.90
67752;DHT22;54551;51.068;5.826;2023-03-14T00:53:29;10.80;99.90
67752;DHT22;54551;51.068;5.826;2023-03-14T00:55:55;10.90;99.90
67752;DHT22;54551;51.068;5.826;2023-03-14T00:58:21;10.90;99.90
67752;DHT22;54551;51.068;5.826;2023-03-14T01:00:47;10.90;99.90
67752;DHT22;54551;51.068;5.826;2023-03-14T01:03:13;10.90;99.90
67752;DHT22;54551;51.068;5.826;2023-03-14T01:05:40;10.90;99.90
67752;DHT22;54551;51.068;5.826;2023-03-14T01:08:06;11.00;99.90
67752;DHT22;54551;51.068;5.826;2023-03-14T01:10:34;11.00;99.90
67752;DHT22;54551;51.068;5.826;2023-03-14T01:13:00;11.00;99.90
67752;DHT22;54551;51.068;5.826;2023-03-14T01:15:28;11.00;99.90
67752;DHT22;54551;51.068;5.826;2023-03-14T01:17:54;11.00;99.90
67752;DHT22;54551;51.068;5.826;2023-03-14T01:20:19;11.00;99.90
67752;DHT22;54551;51.068;5.826;2023-03-14T01:22:45;11.00;99.90
67752;DHT22;54551;51.068;5.826;2023-03-14T01:25:15;11.10;99.90
67752;DHT22;54551;51.068;5.826;2023-03-14T01:27:41;11.00;99.90
67752;DHT22;54551;51.068;5.826;2023-03-14T01:30:09;11.00;99.90
67752;DHT22;54551;51.068;5.826;2023-03-14T01:32:35;11.00;99.90
67752;DHT22;54551;51.068;5.826;2023-03-14T01:35:02;10.90;99.90
67752;DHT22;54551;51.068;5.826;2023-03-14T01:37:28;10.90;99.90
67752;DHT22;54551;51.068;5.826;2023-03-14T01:39:54;10.90;99.90
67752;DHT22;54551;51.068;5.826;2023-03-14T01:42:20;10.90;99.90
67752;DHT22;54551;51.068;5.826;2023-03-14T01:47:17;11.00;99.90
67752;DHT22;54551;51.068;5.826;2023-03-14T01:49:45;11.00;99.90
67752;DHT22;54551;51.068;5.826;2023-03-14T01:52:25;11.00;99.90
67752;DHT22;54551;51.068;5.826;2023-03-14T01:54:55;11.00;99.90
67752;DHT22;54551;51.068;5.826;2023-03-14T01:57:42;11.10;99.90
67752;DHT22;54551;51.068;5.826;2023-03-14T02:00:17;11.00;99.90
67752;DHT22;54551;51.068;5.826;2023-03-14T02:02:51;11.10;99.90
67752;DHT22;54551;51.068;5.826;2023-03-14T02:05:23;11.10;99.90
67752;DHT22;54551;51.068;5.826;2023-03-14T02:08:05;11.10;99.90
67752;DHT22;54551;51.068;5.826;2023-03-14T02:10:41;11.10;99.90
67752;DHT22;54551;51.068;5.826;2023-03-14T02:13:10;11.10;99.90
67752;DHT22;54551;51.068;5.826;2023-03-14T02:15:59;11.10;99.90
67752;DHT22;54551;51.068;5.826;2023-03-14T02:18:43;11.10;99.90
67752;DHT22;54551;51.068;5.826;2023-03-14T02:21:26;11.10;99.90
67752;DHT22;54551;51.068;5.826;2023-03-14T02:26:28;11.00;99.90
67752;DHT22;54551;51.068;5.826;2023-03-14T02:28:56;11.00;99.90
67752;DHT22;54551;51.068;5.826;2023-03-14T02:31:22;11.10;99.90
67752;DHT22;54551;51.068;5.826;2023-03-14T02:33:49;11.10;99.90
67752;DHT22;54551;51.068;5.826;2023-03-14T02:36:17;11.20;99.90
67752;DHT22;54551;51.068;5.826;2023-03-14T02:39:11;11.20;99.90
67752;DHT22;54551;51.068;5.826;2023-03-14T02:41:41;11.20;99.90
67752;DHT22;54551;51.068;5.826;2023-03-14T02:44:08;11.30;99.90
67752;DHT22;54551;51.068;5.826;2023-03-14T02:46:34;11.20;99.90
67752;DHT22;54551;51.068;5.826;2023-03-14T02:49:18;11.20;99.90
67752;DHT22;54551;51.068;5.826;2023-03-14T02:51:45;11.20;99.90
67752;DHT22;54551;51.068;5.826;2023-03-14T02:54:13;11.10;99.90
67752;DHT22;54551;51.068;5.826;2023-03-14T02:56:40;11.10;99.90
67752;DHT22;54551;51.068;5.826;2023-03-14T02:59:07;11.00;99.90
67752;DHT22;54551;51.068;5.826;2023-03-14T03:01:45;11.00;99.90
67752;DHT22;54551;51.068;5.826;2023-03-14T03:04:10;11.00;99.90
67752;DHT22;54551;51.068;5.826;2023-03-14T03:06:36;11.00;99.90
67752;DHT22;54551;51.068;5.826;2023-03-14T03:09:02;11.00;99.90
67752;DHT22;54551;51.068;5.826;2023-03-14T03:11:29;10.90;99.90
67752;DHT22;54551;51.068;5.826;2023-03-14T03:13:55;10.70;99.90
67752;DHT22;54551;51.068;5.826;2023-03-14T03:16:21;10.70;99.90
67752;DHT22;54551;51.068;5.826;2023-03-14T03:18:47;10.60;99.90
67752;DHT22;54551;51.068;5.826;2023-03-14T03:21:13;10.50;99.90
67752;DHT22;54551;51.068;5.826;2023-03-14T03:23:39;10.50;99.90
67752;DHT22;54551;51.068;5.826;2023-03-14T03:26:05;10.40;99.90
67752;DHT22;54551;51.068;5.826;2023-03-14T03:28:31;10.40;99.90
67752;DHT22;54551;51.068;5.826;2023-03-14T03:30:59;10.40;99.90
67752;DHT22;54551;51.068;5.826;2023-03-14T03:33:24;10.40;99.90
67752;DHT22;54551;51.068;5.826;2023-03-14T03:35:51;10.40;99.90
67752;DHT22;54551;51.068;5.826;2023-03-14T03:38:30;10.40;99.90
67752;DHT22;54551;51.068;5.826;2023-03-14T03:41:02;10.40;99.90
67752;DHT22;54551;51.068;5.826;2023-03-14T03:43:29;10.40;99.90
67752;DHT22;54551;51.068;5.826;2023-03-14T03:45:56;10.40;99.90
67752;DHT22;54551;51.068;5.826;2023-03-14T03:48:23;10.40;99.90
67752;DHT22;54551;51.068;5.826;2023-03-14T03:50:49;10.40;99.90
67752;DHT22;54551;51.068;5.826;2023-03-14T03:53:19;10.30;99.90
67752;DHT22;54551;51.068;5.826;2023-03-14T03:55:45;10.30;99.90
67752;DHT22;54551;51.068;5.826;2023-03-14T03:58:10;10.30;99.90
67752;DHT22;54551;51.068;5.826;2023-03-14T04:00:36;10.30;99.90
67752;DHT22;54551;51.068;5.826;2023-03-14T04:03:02;10.30;99.90
67752;DHT22;54551;51.068;5.826;2023-03-14T04:05:29;10.30;99.90
67752;DHT22;54551;51.068;5.826;2023-03-14T04:08:00;10.30;99.90
67752;DHT22;54551;51.068;5.826;2023-03-14T04:10:28;10.30;99.90
67752;DHT22;54551;51.068;5.826;2023-03-14T04:13:04;10.30;99.90
67752;DHT22;54551;51.068;5.826;2023-03-14T04:15:32;10.30;99.90
67752;DHT22;54551;51.068;5.826;2023-03-14T04:18:02;10.30;99.90
67752;DHT22;54551;51.068;5.826;2023-03-14T04:20:28;10.40;99.90
67752;DHT22;54551;51.068;5.826;2023-03-14T04:22:54;10.40;99.90
67752;DHT22;54551;51.068;5.826;2023-03-14T04:25:20;10.40;99.90
67752;DHT22;54551;51.068;5.826;2023-03-14T04:27:50;10.40;99.90
67752;DHT22;54551;51.068;5.826;2023-03-14T04:30:21;10.40;99.90
67752;DHT22;54551;51.068;5.826;2023-03-14T04:32:57;10.30;99.90
67752;DHT22;54551;51.068;5.826;2023-03-14T04:35:25;10.40;99.90
67752;DHT22;54551;51.068;5.826;2023-03-14T04:37:55;10.40;99.90
67752;DHT22;54551;51.068;5.826;2023-03-14T04:40:22;10.40;99.90
67752;DHT22;54551;51.068;5.826;2023-03-14T04:42:51;10.40;99.90
67752;DHT22;54551;51.068;5.826;2023-03-14T04:45:17;10.50;99.90
67752;DHT22;54551;51.068;5.826;2023-03-14T04:47:43;10.50;99.90
67752;DHT22;54551;51.068;5.826;2023-03-14T04:50:12;10.40;99.90
67752;DHT22;54551;51.068;5.826;2023-03-14T04:52:39;10.40;99.90
67752;DHT22;54551;51.068;5.826;2023-03-14T04:55:05;10.40;99.90
67752;DHT22;54551;51.068;5.826;2023-03-14T04:57:31;10.40;99.90
67752;DHT22;54551;51.068;5.826;2023-03-14T04:59:58;10.40;99.90
67752;DHT22;54551;51.068;5.826;2023-03-14T05:02:42;10.50;99.90
67752;DHT22;54551;51.068;5.826;2023-03-14T05:05:21;10.50;99.90
67752;DHT22;54551;51.068;5.826;2023-03-14T05:08:06;10.60;99.90
67752;DHT22;54551;51.068;5.826;2023-03-14T05:10:41;10.50;99.90
67752;DHT22;54551;51.068;5.826;2023-03-14T05:13:16;10.40;99.90
67752;DHT22;54551;51.068;5.826;2023-03-14T05:15:53;10.40;99.90
67752;DHT22;54551;51.068;5.826;2023-03-14T05:18:40;10.40;99.90
67752;DHT22;54551;51.068;5.826;2023-03-14T05:21:24;10.40;99.90
67752;DHT22;54551;51.068;5.826;2023-03-14T05:24:25;10.40;99.90
67752;DHT22;54551;51.068;5.826;2023-03-14T05:27:26;10.40;99.90
67752;DHT22;54551;51.068;5.826;2023-03-14T05:30:31;10.40;99.90
67752;DHT22;54551;51.068;5.826;2023-03-14T05:33:36;10.30;99.90
67752;DHT22;54551;51.068;5.826;2023-03-14T05:36:31;10.30;99.90
67752;DHT22;54551;51.068;5.826;2023-03-14T05:39:24;10.30;99.90
67752;DHT22;54551;51.068;5.826;2023-03-14T05:41:52;10.30;99.90
67752;DHT22;54551;51.068;5.826;2023-03-14T05:44:44;10.40;99.90
67752;DHT22;54551;51.068;5.826;2023-03-14T05:47:16;10.30;99.90
67752;DHT22;54551;51.068;5.826;2023-03-14T05:49:51;10.30;99.90
67752;DHT22;54551;51.068;5.826;2023-03-14T05:52:31;10.30;99.90
67752;DHT22;54551;51.068;5.826;2023-03-14T05:55:23;10.30;99.90
67752;DHT22;54551;51.068;5.826;2023-03-14T05:58:03;10.30;99.90
67752;DHT22;54551;51.068;5.826;2023-03-14T06:00:41;10.40;99.90
67752;DHT22;54551;51.068;5.826;2023-03-14T06:03:24;10.40;99.90
67752;DHT22;54551;51.068;5.826;2023-03-14T06:05:50;10.40;99.90
67752;DHT22;54551;51.068;5.826;2023-03-14T06:08:17;10.50;99.90
67752;DHT22;54551;51.068;5.826;2023-03-14T06:10:45;10.50;99.90
67752;DHT22;54551;51.068;5.826;2023-03-14T06:13:12;10.50;99.90
67752;DHT22;54551;51.068;5.826;2023-03-14T06:15:38;10.50;99.90
67752;DHT22;54551;51.068;5.826;2023-03-14T06:18:04;10.50;99.90
67752;DHT22;54551;51.068;5.826;2023-03-14T06:20:30;10.60;99.90
67752;DHT22;54551;51.068;5.826;2023-03-14T06:22:57;10.60;99.90
67752;DHT22;54551;51.068;5.826;2023-03-14T06:25:23;10.60;99.90
67752;DHT22;54551;51.068;5.826;2023-03-14T06:27:50;10.60;99.90
67752;DHT22;54551;51.068;5.826;2023-03-14T06:30:16;10.60;99.90
67752;DHT22;54551;51.068;5.826;2023-03-14T06:32:43;10.60;99.90
67752;DHT22;54551;51.068;5.826;2023-03-14T06:35:12;10.60;99.90
67752;DHT22;54551;51.068;5.826;2023-03-14T06:37:40;10.60;99.90
67752;DHT22;54551;51.068;5.826;2023-03-14T06:40:08;10.60;99.90
67752;DHT22;54551;51.068;5.826;2023-03-14T06:42:47;10.70;99.90
67752;DHT22;54551;51.068;5.826;2023-03-14T06:45:15;10.70;99.90
67752;DHT22;54551;51.068;5.826;2023-03-14T06:47:42;10.80;99.90
67752;DHT22;54551;51.068;5.826;2023-03-14T06:50:09;10.80;99.90
67752;DHT22;54551;51.068;5.826;2023-03-14T06:52:35;10.80;99.90
67752;DHT22;54551;51.068;5.826;2023-03-14T06:55:01;10.80;99.90
67752;DHT22;54551;51.068;5.826;2023-03-14T06:57:28;10.80;99.90
67752;DHT22;54551;51.068;5.826;2023-03-14T06:59:54;10.80;99.90
67752;DHT22;54551;51.068;5.826;2023-03-14T07:02:22;10.90;99.90
67752;DHT22;54551;51.068;5.826;2023-03-14T07:04:48;10.90;99.90
67752;DHT22;54551;51.068;5.826;2023-03-14T07:07:15;11.00;99.90
67752;DHT22;54551;51.068;5.826;2023-03-14T07:09:42;11.00;99.90
67752;DHT22;54551;51.068;5.826;2023-03-14T07:12:08;11.00;99.90
67752;DHT22;54551;51.068;5.826;2023-03-14T07:14:34;11.10;99.90
67752;DHT22;54551;51.068;5.826;2023-03-14T07:17:00;11.10;99.90
67752;DHT22;54551;51.068;5.826;2023-03-14T07:19:26;11.20;99.90
67752;DHT22;54551;51.068;5.826;2023-03-14T07:21:52;11.20;99.90
67752;DHT22;54551;51.068;5.826;2023-03-14T07:24:22;11.30;99.90
67752;DHT22;54551;51.068;5.826;2023-03-14T07:26:48;11.30;99.90
67752;DHT22;54551;51.068;5.826;2023-03-14T07:29:14;11.30;99.90
67752;DHT22;54551;51.068;5.826;2023-03-14T07:31:41;11.40;99.90
67752;DHT22;54551;51.068;5.826;2023-03-14T07:34:08;11.50;99.90
67752;DHT22;54551;51.068;5.826;2023-03-14T07:36:37;11.60;99.90
67752;DHT22;54551;51.068;5.826;2023-03-14T07:39:03;11.70;99.90
67752;DHT22;54551;51.068;5.826;2023-03-14T07:41:53;11.70;99.90
67752;DHT22;54551;51.068;5.826;2023-03-14T07:44:38;11.80;99.90
67752;DHT22;54551;51.068;5.826;2023-03-14T07:47:04;11.80;99.90
67752;DHT22;54551;51.068;5.826;2023-03-14T07:49:30;11.80;99.90
67752;DHT22;54551;51.068;5.826;2023-03-14T07:51:56;11.80;99.90
67752;DHT22;54551;51.068;5.826;2023-03-14T07:54:22;11.90;99.90
67752;DHT22;54551;51.068;5.826;2023-03-14T07:56:49;11.80;99.90
67752;DHT22;54551;51.068;5.826;2023-03-14T07:59:15;11.90;99.90
67752;DHT22;54551;51.068;5.826;2023-03-14T08:01:41;11.80;99.90
67752;DHT22;54551;51.068;5.826;2023-03-14T08:04:06;11.70;99.90
67752;DHT22;54551;51.068;5.826;2023-03-14T08:06:32;11.70;99.90
67752;DHT22;54551;51.068;5.826;2023-03-14T08:09:00;11.70;99.90
67752;DHT22;54551;51.068;5.826;2023-03-14T08:11:26;11.70;99.90
67752;DHT22;54551;51.068;5.826;2023-03-14T08:13:52;11.70;99.90
67752;DHT22;54551;51.068;5.826;2023-03-14T08:16:18;11.70;99.90
67752;DHT22;54551;51.068;5.826;2023-03-14T08:18:45;11.70;99.90
67752;DHT22;54551;51.068;5.826;2023-03-14T08:21:11;11.70;99.90
67752;DHT22;54551;51.068;5.826;2023-03-14T08:23:37;11.50;99.90
67752;DHT22;54551;51.068;5.826;2023-03-14T08:26:03;11.30;99.90
67752;DHT22;54551;51.068;5.826;2023-03-14T08:28:29;11.10;99.90
67752;DHT22;54551;51.068;5.826;2023-03-14T08:30:58;10.90;99.90
67752;DHT22;54551;51.068;5.826;2023-03-14T08:33:25;10.80;99.90
67752;DHT22;54551;51.068;5.826;2023-03-14T08:35:55;10.70;99.90
67752;DHT22;54551;51.068;5.826;2023-03-14T08:38:21;10.60;99.90
67752;DHT22;54551;51.068;5.826;2023-03-14T08:40:48;10.60;99.90
67752;DHT22;54551;51.068;5.826;2023-03-14T08:43:15;10.50;99.90
67752;DHT22;54551;51.068;5.826;2023-03-14T08:45:41;10.50;99.90
67752;DHT22;54551;51.068;5.826;2023-03-14T08:48:07;10.50;99.90
67752;DHT22;54551;51.068;5.826;2023-03-14T08:50:33;10.40;99.90
67752;DHT22;54551;51.068;5.826;2023-03-14T08:52:59;10.30;99.90
67752;DHT22;54551;51.068;5.826;2023-03-14T08:55:26;10.30;99.90
67752;DHT22;54551;51.068;5.826;2023-03-14T08:57:55;10.20;99.90
67752;DHT22;54551;51.068;5.826;2023-03-14T09:00:21;10.10;99.90
67752;DHT22;54551;51.068;5.826;2023-03-14T09:02:47;10.00;99.90
67752;DHT22;54551;51.068;5.826;2023-03-14T09:05:13;10.00;99.90
67752;DHT22;54551;51.068;5.826;2023-03-14T09:07:40;9.90;99.90
67752;DHT22;54551;51.068;5.826;2023-03-14T09:10:07;9.90;99.90
67752;DHT22;54551;51.068;5.826;2023-03-14T09:12:33;9.90;99.90
67752;DHT22;54551;51.068;5.826;2023-03-14T09:14:59;9.90;99.90
67752;DHT22;54551;51.068;5.826;2023-03-14T09:17:25;9.90;99.90
67752;DHT22;54551;51.068;5.826;2023-03-14T09:19:51;9.90;99.90
67752;DHT22;54551;51.068;5.826;2023-03-14T09:22:17;10.00;99.90
67752;DHT22;54551;51.068;5.826;2023-03-14T09:24:43;10.10;99.90
67752;DHT22;54551;51.068;5.826;2023-03-14T09:27:09;10.20;99.90
67752;DHT22;54551;51.068;5.826;2023-03-14T09:29:35;10.40;99.90
67752;DHT22;54551;51.068;5.826;2023-03-14T09:32:01;10.60;99.90
67752;DHT22;54551;51.068;5.826;2023-03-14T09:34:27;10.70;99.90
67752;DHT22;54551;51.068;5.826;2023-03-14T09:36:53;10.70;99.90
67752;DHT22;54551;51.068;5.826;2023-03-14T09:39:19;10.80;99.90
67752;DHT22;54551;51.068;5.826;2023-03-14T09:41:47;10.80;99.90
67752;DHT22;54551;51.068;5.826;2023-03-14T09:46:46;10.80;99.90
67752;DHT22;54551;51.068;5.826;2023-03-14T09:51:56;10.80;99.90
67752;DHT22;54551;51.068;5.826;2023-03-14T09:56:52;10.70;99.90
67752;DHT22;54551;51.068;5.826;2023-03-14T09:59:19;10.70;99.90
67752;DHT22;54551;51.068;5.826;2023-03-14T10:01:45;10.70;99.90
67752;DHT22;54551;51.068;5.826;2023-03-14T10:04:15;10.80;99.90
67752;DHT22;54551;51.068;5.826;2023-03-14T10:06:43;10.80;99.90
67752;DHT22;54551;51.068;5.826;2023-03-14T10:09:22;10.80;99.90
67752;DHT22;54551;51.068;5.826;2023-03-14T10:11:57;10.90;99.90
67752;DHT22;54551;51.068;5.826;2023-03-14T10:14:52;11.00;99.90
67752;DHT22;54551;51.068;5.826;2023-03-14T10:17:18;11.10;99.90
67752;DHT22;54551;51.068;5.826;2023-03-14T10:19:56;11.20;99.90
67752;DHT22;54551;51.068;5.826;2023-03-14T10:22:25;11.30;99.90
67752;DHT22;54551;51.068;5.826;2023-03-14T10:24:54;11.30;99.90
67752;DHT22;54551;51.068;5.826;2023-03-14T10:27:27;11.40;99.90
67752;DHT22;54551;51.068;5.826;2023-03-14T10:29:56;11.40;99.90
67752;DHT22;54551;51.068;5.826;2023-03-14T10:32:37;11.30;99.90
67752;DHT22;54551;51.068;5.826;2023-03-14T10:35:17;11.40;99.90
67752;DHT22;54551;51.068;5.826;2023-03-14T10:37:55;11.50;99.90
67752;DHT22;54551;51.068;5.826;2023-03-14T10:40:31;11.50;99.90
67752;DHT22;54551;51.068;5.826;2023-03-14T10:43:04;11.40;99.90
67752;DHT22;54551;51.068;5.826;2023-03-14T10:48:05;11.40;99.90
67752;DHT22;54551;51.068;5.826;2023-03-14T10:50:33;11.40;99.90
67752;DHT22;54551;51.068;5.826;2023-03-14T10:53:02;11.30;99.90
67752;DHT22;54551;51.068;5.826;2023-03-14T10:55:42;11.30;99.90
67752;DHT22;54551;51.068;5.826;2023-03-14T10:58:38;11.00;99.90
67752;DHT22;54551;51.068;5.826;2023-03-14T11:01:44;10.60;99.90
67752;DHT22;54551;51.068;5.826;2023-03-14T11:11:53;9.20;99.90
67752;DHT22;54551;51.068;5.826;2023-03-14T11:14:29;9.20;99.90
67752;DHT22;54551;51.068;5.826;2023-03-14T11:17:15;9.00;99.90
67752;DHT22;54551;51.068;5.826;2023-03-14T11:20:12;9.00;99.90
67752;DHT22;54551;51.068;5.826;2023-03-14T11:22:59;9.10;99.90
67752;DHT22;54551;51.068;5.826;2023-03-14T11:30:55;9.30;99.90
67752;DHT22;54551;51.068;5.826;2023-03-14T11:33:28;9.40;99.90
67752;DHT22;54551;51.068;5.826;2023-03-14T11:38:46;9.60;99.90
67752;DHT22;54551;51.068;5.826;2023-03-14T11:41:32;9.70;99.90
67752;DHT22;54551;51.068;5.826;2023-03-14T11:44:03;9.80;99.90
67752;DHT22;54551;51.068;5.826;2023-03-14T11:46:38;9.90;99.90
67752;DHT22;54551;51.068;5.826;2023-03-14T11:49:11;9.90;99.90
67752;DHT22;54551;51.068;5.826;2023-03-14T11:51:42;9.90;99.90
67752;DHT22;54551;51.068;5.826;2023-03-14T11:57:24;9.60;99.90
67752;DHT22;54551;51.068;5.826;2023-03-14T12:02:35;8.70;99.90
67752;DHT22;54551;51.068;5.826;2023-03-14T12:05:30;8.60;99.90
67752;DHT22;54551;51.068;5.826;2023-03-14T12:10:58;8.60;99.90
67752;DHT22;54551;51.068;5.826;2023-03-14T12:13:29;8.70;99.90
67752;DHT22;54551;51.068;5.826;2023-03-14T12:16:03;8.80;99.90
67752;DHT22;54551;51.068;5.826;2023-03-14T12:18:32;9.00;99.90
67752;DHT22;54551;51.068;5.826;2023-03-14T12:21:01;9.20;99.90
67752;DHT22;54551;51.068;5.826;2023-03-14T12:23:36;9.50;99.90
67752;DHT22;54551;51.068;5.826;2023-03-14T12:26:19;9.80;99.90
67752;DHT22;54551;51.068;5.826;2023-03-14T12:44:48;10.50;99.90
67752;DHT22;54551;51.068;5.826;2023-03-14T12:49:52;9.50;99.90
67752;DHT22;54551;51.068;5.826;2023-03-14T12:52:36;8.90;99.90
67752;DHT22;54551;51.068;5.826;2023-03-14T12:55:36;8.20;99.90
67752;DHT22;54551;51.068;5.826;2023-03-14T12:58:17;8.10;99.90
67752;DHT22;54551;51.068;5.826;2023-03-14T13:00:55;7.90;99.90
67752;DHT22;54551;51.068;5.826;2023-03-14T13:03:25;7.70;99.90
67752;DHT22;54551;51.068;5.826;2023-03-14T13:05:57;7.60;99.90
67752;DHT22;54551;51.068;5.826;2023-03-14T13:08:41;7.70;99.90
67752;DHT22;54551;51.068;5.826;2023-03-14T13:11:12;7.70;99.90
67752;DHT22;54551;51.068;5.826;2023-03-14T13:13:45;7.70;99.90
67752;DHT22;54551;51.068;5.826;2023-03-14T13:16:20;7.80;99.90
67752;DHT22;54551;51.068;5.826;2023-03-14T13:18:49;7.80;99.90
67752;DHT22;54551;51.068;5.826;2023-03-14T13:21:24;8.10;99.90
67752;DHT22;54551;51.068;5.826;2023-03-14T13:24:02;8.30;99.90
67752;DHT22;54551;51.068;5.826;2023-03-14T13:26:35;8.40;99.90
67752;DHT22;54551;51.068;5.826;2023-03-14T13:29:25;8.60;99.90
67752;DHT22;54551;51.068;5.826;2023-03-14T13:31:54;8.90;99.90
67752;DHT22;54551;51.068;5.826;2023-03-14T13:34:26;9.00;99.90
67752;DHT22;54551;51.068;5.826;2023-03-14T13:36:53;9.20;99.90
67752;DHT22;54551;51.068;5.826;2023-03-14T13:39:25;9.50;99.90
67752;DHT22;54551;51.068;5.826;2023-03-14T13:41:52;9.90;99.90
67752;DHT22;54551;51.068;5.826;2023-03-14T13:44:29;10.10;99.90
67752;DHT22;54551;51.068;5.826;2023-03-14T13:47:00;10.10;99.90
67752;DHT22;54551;51.068;5.826;2023-03-14T13:49:28;10.30;99.90
67752;DHT22;54551;51.068;5.826;2023-03-14T13:51:56;10.20;99.90
67752;DHT22;54551;51.068;5.826;2023-03-14T13:54:22;10.40;99.90
67752;DHT22;54551;51.068;5.826;2023-03-14T13:57:00;10.60;99.90
67752;DHT22;54551;51.068;5.826;2023-03-14T13:59:28;10.70;99.90
67752;DHT22;54551;51.068;5.826;2023-03-14T14:01:56;10.70;99.90
67752;DHT22;54551;51.068;5.826;2023-03-14T14:04:24;10.70;99.90
67752;DHT22;54551;51.068;5.826;2023-03-14T14:06:59;10.70;99.90
67752;DHT22;54551;51.068;5.826;2023-03-14T14:09:43;10.60;99.90
67752;DHT22;54551;51.068;5.826;2023-03-14T14:12:20;10.50;99.90
67752;DHT22;54551;51.068;5.826;2023-03-14T14:17:41;10.40;99.90
67752;DHT22;54551;51.068;5.826;2023-03-14T14:20:18;10.30;99.90
67752;DHT22;54551;51.068;5.826;2023-03-14T14:22:46;10.20;99.90
67752;DHT22;54551;51.068;5.826;2023-03-14T14:25:15;10.30;99.90
67752;DHT22;54551;51.068;5.826;2023-03-14T14:27:46;10.40;99.90
67752;DHT22;54551;51.068;5.826;2023-03-14T14:32:46;10.60;99.90
67752;DHT22;54551;51.068;5.826;2023-03-14T14:35:32;10.70;99.90
67752;DHT22;54551;51.068;5.826;2023-03-14T14:37:59;10.80;99.90
67752;DHT22;54551;51.068;5.826;2023-03-14T14:40:28;10.90;99.90
67752;DHT22;54551;51.068;5.826;2023-03-14T14:42:55;11.00;99.90
67752;DHT22;54551;51.068;5.826;2023-03-14T14:45:28;11.10;99.90
67752;DHT22;54551;51.068;5.826;2023-03-14T14:48:14;11.30;99.90
67752;DHT22;54551;51.068;5.826;2023-03-14T14:51:04;11.30;99.90
67752;DHT22;54551;51.068;5.826;2023-03-14T14:53:41;11.40;99.90
67752;DHT22;54551;51.068;5.826;2023-03-14T14:56:29;11.10;99.90
67752;DHT22;54551;51.068;5.826;2023-03-14T14:58:59;11.00;99.90
67752;DHT22;54551;51.068;5.826;2023-03-14T15:01:38;11.00;99.90
67752;DHT22;54551;51.068;5.826;2023-03-14T15:04:11;11.00;99.90
67752;DHT22;54551;51.068;5.826;2023-03-14T15:06:39;11.00;99.90
67752;DHT22;54551;51.068;5.826;2023-03-14T15:09:10;10.90;99.90
67752;DHT22;54551;51.068;5.826;2023-03-14T15:11:36;11.00;99.90
67752;DHT22;54551;51.068;5.826;2023-03-14T15:14:02;10.70;99.90
67752;DHT22;54551;51.068;5.826;2023-03-14T15:16:30;10.60;99.90
67752;DHT22;54551;51.068;5.826;2023-03-14T15:18:59;10.50;99.90
67752;DHT22;54551;51.068;5.826;2023-03-14T15:21:27;10.40;99.90
67752;DHT22;54551;51.068;5.826;2023-03-14T15:23:54;10.20;99.90
67752;DHT22;54551;51.068;5.826;2023-03-14T15:26:22;10.00;99.90
67752;DHT22;54551;51.068;5.826;2023-03-14T15:28:49;9.90;99.90
67752;DHT22;54551;51.068;5.826;2023-03-14T15:31:17;9.80;99.90
67752;DHT22;54551;51.068;5.826;2023-03-14T15:33:44;9.80;99.90
67752;DHT22;54551;51.068;5.826;2023-03-14T15:36:31;9.80;99.90
67752;DHT22;54551;51.068;5.826;2023-03-14T15:38:57;9.70;99.90
67752;DHT22;54551;51.068;5.826;2023-03-14T15:41:25;9.70;99.90
67752;DHT22;54551;51.068;5.826;2023-03-14T15:43:51;9.60;99.90
67752;DHT22;54551;51.068;5.826;2023-03-14T15:46:17;9.50;99.90
67752;DHT22;54551;51.068;5.826;2023-03-14T15:48:47;9.30;99.90
67752;DHT22;54551;51.068;5.826;2023-03-14T15:51:14;9.30;99.90
67752;DHT22;54551;51.068;5.826;2023-03-14T15:53:40;9.30;99.90
67752;DHT22;54551;51.068;5.826;2023-03-14T15:56:14;9.40;99.90
67752;DHT22;54551;51.068;5.826;2023-03-14T15:58:40;9.20;99.90
67752;DHT22;54551;51.068;5.826;2023-03-14T16:01:08;9.10;99.90
67752;DHT22;54551;51.068;5.826;2023-03-14T16:03:35;9.00;99.90
67752;DHT22;54551;51.068;5.826;2023-03-14T16:06:01;8.90;99.90
67752;DHT22;54551;51.068;5.826;2023-03-14T16:08:27;8.90;99.90
67752;DHT22;54551;51.068;5.826;2023-03-14T16:10:58;8.80;99.90
67752;DHT22;54551;51.068;5.826;2023-03-14T16:13:24;8.70;99.90
67752;DHT22;54551;51.068;5.826;2023-03-14T16:15:58;8.80;99.90
67752;DHT22;54551;51.068;5.826;2023-03-14T16:18:26;8.80;99.90
67752;DHT22;54551;51.068;5.826;2023-03-14T16:21:01;8.80;99.90
67752;DHT22;54551;51.068;5.826;2023-03-14T16:23:28;8.80;99.90
67752;DHT22;54551;51.068;5.826;2023-03-14T16:25:55;8.70;99.90
67752;DHT22;54551;51.068;5.826;2023-03-14T16:28:22;8.80;99.90
67752;DHT22;54551;51.068;5.826;2023-03-14T16:30:48;8.70;99.90
67752;DHT22;54551;51.068;5.826;2023-03-14T16:33:15;8.60;99.90
67752;DHT22;54551;51.068;5.826;2023-03-14T16:35:41;8.50;99.90
67752;DHT22;54551;51.068;5.826;2023-03-14T16:38:17;8.40;99.90
67752;DHT22;54551;51.068;5.826;2023-03-14T16:40:43;8.40;99.90
67752;DHT22;54551;51.068;5.826;2023-03-14T16:43:09;8.30;99.90
67752;DHT22;54551;51.068;5.826;2023-03-14T16:45:36;8.40;99.90
67752;DHT22;54551;51.068;5.826;2023-03-14T16:48:02;8.20;99.90
67752;DHT22;54551;51.068;5.826;2023-03-14T16:50:29;8.20;99.90
67752;DHT22;54551;51.068;5.826;2023-03-14T16:52:55;8.10;99.90
67752;DHT22;54551;51.068;5.826;2023-03-14T16:55:21;8.10;99.90
67752;DHT22;54551;51.068;5.826;2023-03-14T16:57:47;8.00;99.90
67752;DHT22;54551;51.068;5.826;2023-03-14T17:00:13;7.90;99.90
67752;DHT22;54551;51.068;5.826;2023-03-14T17:02:39;7.90;99.90